Time;durP1;ratioP1;P1;durP2;ratioP2;P2;SDS_P1;SDS_P2;PMS_P1;PMS_P2;Temp;Humidity;BMP_temperature;BMP_pressure;BME280_temperature;BME280_humidity;BME280_pressure;Samples;Min_cycle;Max_cycle;Signal;HPM_P1;HPM_P2
2021/03/21 00:00:08;;;;;;;5.88;2.30;;;3.30;80.00;;;;;;5110917;28;20068;-68
2021/03/21 00:02:34;;;;;;;5.60;2.60;;;3.50;77.80;;;;;;5110759;28;20122;-68
2021/03/21 00:04:59;;;;;;;4.30;2.00;;;3.60;81.80;;;;;;5110936;28;20099;-67
2021/03/21 00:07:25;;;;;;;7.20;2.55;;;3.70;76.70;;;;;;5110786;28;20076;-68
2021/03/21 00:09:50;;;;;;;7.53;2.70;;;3.80;76.50;;;;;;5110712;28;20470;-68
2021/03/21 00:12:16;;;;;;;6.65;2.35;;;3.80;76.40;;;;;;5110587;28;20028;-68
2021/03/21 00:14:41;;;;;;;8.82;2.83;;;3.80;77.20;;;;;;5110833;28;20023;-67
2021/03/21 00:17:07;;;;;;;8.50;2.63;;;3.80;77.20;;;;;;5110876;28;20390;-66
2021/03/21 00:19:32;;;;;;;7.10;2.53;;;3.80;78.80;;;;;;5110800;28;20059;-68
2021/03/21 00:21:58;;;;;;;6.07;2.45;;;3.70;80.50;;;;;;5110487;28;20027;-68
2021/03/21 00:24:23;;;;;;;5.45;2.47;;;3.70;80.20;;;;;;5110950;28;20035;-68
2021/03/21 00:26:49;;;;;;;5.20;2.38;;;3.80;78.40;;;;;;5110785;28;20023;-67
2021/03/21 00:29:15;;;;;;;7.18;3.05;;;3.90;78.10;;;;;;5110613;28;20019;-68
2021/03/21 00:31:40;;;;;;;7.07;2.72;;;3.90;78.50;;;;;;5110452;28;20486;-68
2021/03/21 00:34:06;;;;;;;6.50;2.75;;;3.90;77.60;;;;;;5114133;28;20023;-68
2021/03/21 00:36:32;;;;;;;5.88;2.67;;;3.90;75.70;;;;;;5095888;28;20047;-67
2021/03/21 00:38:57;;;;;;;8.15;2.58;;;3.90;75.60;;;;;;5114230;28;20027;-66
2021/03/21 00:41:25;;;;;;;6.90;2.35;;;3.90;76.40;;;;;;5095894;28;20400;-68
2021/03/21 00:43:54;;;;;;;7.00;2.65;;;3.90;75.80;;;;;;5113898;28;20059;-68
2021/03/21 00:46:20;;;;;;;6.05;2.50;;;3.90;76.10;;;;;;5114037;28;20020;-66
2021/03/21 00:48:46;;;;;;;7.03;2.50;;;3.80;76.50;;;;;;5113878;28;20110;-68
2021/03/21 00:51:14;;;;;;;7.22;2.53;;;3.90;77.40;;;;;;5113895;28;20031;-67
2021/03/21 00:53:39;;;;;;;7.78;4.05;;;3.80;77.40;;;;;;5113673;28;20181;-68
2021/03/21 00:56:06;;;;;;;8.18;2.78;;;3.80;78.40;;;;;;5114250;28;20047;-68
2021/03/21 00:58:32;;;;;;;7.90;2.83;;;3.90;79.20;;;;;;5113779;28;20236;-68
2021/03/21 01:01:00;;;;;;;7.35;3.03;;;3.90;79.10;;;;;;5113807;28;20024;-67
2021/03/21 01:03:26;;;;;;;8.57;3.13;;;3.90;79.10;;;;;;5113529;28;20135;-67
2021/03/21 01:05:58;;;;;;;6.47;2.75;;;3.80;79.40;;;;;;5113712;28;20076;-68
2021/03/21 01:08:30;;;;;;;8.98;2.90;;;3.90;80.40;;;;;;5113803;28;20492;-68
2021/03/21 01:10:58;;;;;;;7.03;3.00;;;3.90;80.40;;;;;;5113276;28;20504;-67
2021/03/21 01:13:25;;;;;;;7.65;3.08;;;3.70;82.40;;;;;;5113165;28;20074;-67
2021/03/21 01:15:51;;;;;;;8.45;3.10;;;3.70;82.70;;;;;;5113458;28;20024;-68
2021/03/21 01:18:19;;;;;;;9.27;3.03;;;3.60;83.40;;;;;;5113417;28;20157;-68
2021/03/21 01:20:45;;;;;;;7.95;3.47;;;3.50;84.10;;;;;;5113431;28;20019;-68
2021/03/21 01:23:11;;;;;;;8.02;3.08;;;3.40;85.00;;;;;;5113120;28;20024;-67
2021/03/21 01:25:37;;;;;;;8.25;3.47;;;3.40;85.90;;;;;;5113341;28;20064;-67
2021/03/21 01:28:02;;;;;;;10.93;3.63;;;3.40;87.50;;;;;;5113261;28;20507;-66
2021/03/21 01:30:28;;;;;;;7.95;3.20;;;3.50;87.80;;;;;;5113271;28;20027;-68
2021/03/21 01:32:55;;;;;;;7.63;3.38;;;3.50;87.20;;;;;;5112714;28;20034;-68
2021/03/21 01:35:21;;;;;;;9.50;4.38;;;3.60;88.70;;;;;;5094734;28;20020;-68
2021/03/21 01:37:47;;;;;;;8.65;3.75;;;3.60;89.50;;;;;;5113043;28;20020;-68
2021/03/21 01:40:16;;;;;;;9.82;4.28;;;3.60;89.10;;;;;;5112964;28;20493;-67
2021/03/21 01:42:45;;;;;;;7.80;4.07;;;3.60;90.40;;;;;;5112628;28;20054;-68
2021/03/21 01:45:33;;;;;;;9.05;4.28;;;3.70;90.10;;;;;;5112892;28;20028;-67
2021/03/21 01:48:14;;;;;;;9.25;4.57;;;3.80;90.10;;;;;;5112853;28;20034;-68
2021/03/21 01:51:26;;;;;;;7.50;4.22;;;3.80;90.30;;;;;;5112897;28;20028;-68
2021/03/21 01:53:57;;;;;;;9.40;4.50;;;3.90;90.30;;;;;;5075306;28;20046;-67
2021/03/21 01:56:25;;;;;;;10.82;5.53;;;3.90;90.70;;;;;;5112750;28;20062;-66
2021/03/21 01:59:14;;;;;;;10.38;4.88;;;3.90;90.80;;;;;;5112887;28;20027;-66
2021/03/21 02:01:41;;;;;;;12.25;6.00;;;4.00;91.10;;;;;;5112624;28;20028;-67
2021/03/21 02:04:07;;;;;;;14.32;6.28;;;4.00;91.50;;;;;;5112522;28;20210;-67
2021/03/21 02:06:35;;;;;;;11.55;6.40;;;4.00;91.50;;;;;;5112654;28;20023;-68
2021/03/21 02:09:22;;;;;;;13.55;6.13;;;4.10;92.10;;;;;;5094431;28;20035;-67
2021/03/21 02:12:00;;;;;;;13.05;6.20;;;4.10;91.90;;;;;;5112126;28;20462;-67
2021/03/21 02:14:35;;;;;;;10.57;5.63;;;4.10;91.80;;;;;;5094171;28;20023;-67
2021/03/21 02:17:09;;;;;;;13.35;6.93;;;4.10;91.80;;;;;;5112454;28;20016;-68
2021/03/21 02:20:19;;;;;;;14.05;6.43;;;4.00;92.40;;;;;;5094448;28;20497;-69
2021/03/21 02:23:02;;;;;;;13.02;6.85;;;4.10;92.60;;;;;;5112189;28;20111;-67
2021/03/21 02:25:39;;;;;;;13.98;7.97;;;4.10;92.70;;;;;;5112319;28;20490;-68
2021/03/21 02:28:31;;;;;;;13.07;5.78;;;4.10;92.80;;;;;;5112343;28;20023;-68
2021/03/21 02:31:02;;;;;;;13.05;6.93;;;4.20;92.70;;;;;;5112187;28;20028;-67
2021/03/21 02:33:43;;;;;;;13.27;6.97;;;4.20;92.70;;;;;;5111733;28;20053;-67
2021/03/21 02:36:17;;;;;;;12.23;7.07;;;4.20;92.90;;;;;;5093815;28;20024;-68
2021/03/21 02:39:18;;;;;;;13.98;7.47;;;4.20;93.10;;;;;;5112073;28;20031;-68
2021/03/21 02:41:49;;;;;;;13.70;7.10;;;4.20;93.20;;;;;;5028532;28;20103;-67
2021/03/21 02:44:25;;;;;;;13.95;7.00;;;4.20;93.20;;;;;;5028756;28;20492;-68
2021/03/21 02:46:56;;;;;;;13.50;7.40;;;4.20;93.10;;;;;;5028872;28;20040;-67
2021/03/21 02:49:35;;;;;;;12.07;6.43;;;4.20;92.90;;;;;;5028733;28;20037;-68
2021/03/21 02:52:11;;;;;;;14.50;8.20;;;4.30;92.90;;;;;;5028379;28;20123;-68
2021/03/21 02:54:49;;;;;;;15.80;6.93;;;4.20;93.10;;;;;;5028249;28;20483;-67
2021/03/21 02:57:21;;;;;;;13.38;6.82;;;4.20;93.40;;;;;;5028531;28;20036;-68
2021/03/21 02:59:51;;;;;;;13.95;6.82;;;4.10;93.60;;;;;;5028530;28;20028;-66
2021/03/21 03:02:21;;;;;;;;;;;4.20;93.40;;;;;;5028476;28;20455;-68
2021/03/21 03:04:53;;;;;;;15.45;6.95;;;4.20;93.50;;;;;;5028459;28;19932;-68
2021/03/21 03:07:26;;;;;;;12.70;7.13;;;4.20;93.90;;;;;;5028510;28;20033;-67
2021/03/21 03:09:56;;;;;;;13.15;7.05;;;4.20;93.80;;;;;;5028178;28;20041;-67
2021/03/21 03:12:32;;;;;;;15.82;7.60;;;4.20;94.40;;;;;;5026817;28;20483;-67
2021/03/21 03:14:58;;;;;;;14.48;6.63;;;4.20;94.60;;;;;;5044848;28;20065;-68
2021/03/21 03:17:40;;;;;;;14.77;6.80;;;4.20;94.60;;;;;;5111815;28;20023;-69
2021/03/21 03:20:24;;;;;;;14.40;7.65;;;4.20;94.70;;;;;;5093273;28;20023;-67
2021/03/21 03:22:55;;;;;;;15.82;7.25;;;4.20;94.90;;;;;;5111170;28;20074;-68
2021/03/21 03:25:26;;;;;;;15.18;7.68;;;4.30;95.00;;;;;;5111375;28;20028;-68
2021/03/21 03:28:06;;;;;;;12.70;6.97;;;4.30;95.50;;;;;;5111306;28;20025;-67
2021/03/21 03:30:35;;;;;;;;;;;4.30;95.50;;;;;;5111652;28;20035;-67
2021/03/21 03:33:00;;;;;;;13.63;7.10;;;4.30;95.50;;;;;;5110855;28;20009;-67
2021/03/21 03:35:26;;;;;;;15.45;8.35;;;4.30;95.50;;;;;;5111088;28;20118;-66
2021/03/21 03:37:52;;;;;;;15.32;7.82;;;4.30;95.50;;;;;;5111222;28;20045;-66
2021/03/21 03:40:19;;;;;;;18.88;7.68;;;4.30;95.70;;;;;;5110991;28;20097;-68
2021/03/21 03:43:08;;;;;;;14.55;8.00;;;4.30;95.50;;;;;;5110773;28;20027;-68
2021/03/21 03:46:00;;;;;;;14.25;7.43;;;4.30;95.50;;;;;;5110906;28;20486;-68
2021/03/21 03:48:43;;;;;;;15.80;8.00;;;4.40;95.80;;;;;;5111113;28;20031;-66
2021/03/21 03:51:27;;;;;;;16.80;7.70;;;4.40;95.70;;;;;;5111175;28;20470;-67
2021/03/21 03:54:11;;;;;;;15.68;7.47;;;4.40;95.70;;;;;;5110661;28;20034;-67
2021/03/21 03:56:51;;;;;;;17.50;8.65;;;4.30;95.80;;;;;;5111097;28;20020;-66
2021/03/21 03:59:54;;;;;;;16.35;7.53;;;4.30;95.90;;;;;;5110959;28;20095;-65
2021/03/21 04:02:28;;;;;;;16.02;8.35;;;4.30;96.10;;;;;;5110607;28;20466;-65
2021/03/21 04:05:07;;;;;;;16.98;8.05;;;4.30;96.40;;;;;;5110788;28;20042;-65
2021/03/21 04:07:59;;;;;;;14.23;7.38;;;4.30;96.40;;;;;;5112286;28;20501;-66
2021/03/21 04:10:34;;;;;;;17.70;8.98;;;4.30;96.50;;;;;;5099346;28;20051;-65
2021/03/21 04:13:36;;;;;;;15.35;8.02;;;4.30;96.70;;;;;;5114451;28;20023;-66
2021/03/21 04:16:04;;;;;;;15.38;7.60;;;4.30;96.80;;;;;;5100527;28;20034;-67
2021/03/21 04:18:47;;;;;;;16.83;8.30;;;4.30;97.20;;;;;;5114923;28;20420;-65
2021/03/21 04:21:21;;;;;;;15.68;8.30;;;4.20;97.30;;;;;;5114666;28;20020;-65
2021/03/21 04:24:11;;;;;;;16.35;8.77;;;4.20;97.50;;;;;;5114264;28;20106;-65
2021/03/21 04:26:48;;;;;;;17.10;7.32;;;4.20;97.70;;;;;;5114535;28;20028;-66
2021/03/21 04:29:36;;;;;;;13.80;7.93;;;4.10;97.80;;;;;;5095980;28;20024;-67
2021/03/21 04:32:10;;;;;;;12.38;7.05;;;4.10;97.80;;;;;;5114037;28;20026;-65
2021/03/21 04:34:38;;;;;;;13.82;7.82;;;4.10;97.90;;;;;;5114593;28;20069;-65
2021/03/21 04:37:04;;;;;;;14.35;7.50;;;4.10;97.80;;;;;;5114322;28;20026;-66
2021/03/21 04:39:34;;;;;;;14.10;7.28;;;4.10;97.80;;;;;;5114197;28;20016;-65
2021/03/21 04:42:08;;;;;;;13.50;7.25;;;4.20;97.80;;;;;;5114404;28;20023;-65
2021/03/21 04:44:35;;;;;;;13.43;7.80;;;4.10;97.80;;;;;;5114514;28;20453;-65
2021/03/21 04:47:17;;;;;;;15.05;7.97;;;4.10;97.80;;;;;;5114343;28;20015;-66
2021/03/21 04:49:43;;;;;;;16.70;7.80;;;4.10;97.90;;;;;;5114024;28;20027;-66
2021/03/21 04:52:25;;;;;;;15.38;7.35;;;4.20;97.90;;;;;;5113662;28;20034;-65
2021/03/21 04:54:53;;;;;;;15.50;7.90;;;4.30;97.80;;;;;;5095709;28;20020;-67
2021/03/21 04:57:38;;;;;;;16.38;8.35;;;4.30;97.90;;;;;;5113941;28;20055;-66
2021/03/21 05:00:13;;;;;;;14.30;7.72;;;4.30;97.90;;;;;;5113793;28;20043;-67
2021/03/21 05:02:43;;;;;;;14.50;6.90;;;4.30;98.00;;;;;;5113630;28;20436;-65
2021/03/21 05:05:25;;;;;;;13.55;7.25;;;4.30;98.00;;;;;;5113997;28;20058;-65
2021/03/21 05:08:00;;;;;;;13.02;7.47;;;4.30;98.20;;;;;;5113969;28;20024;-65
2021/03/21 05:10:33;;;;;;;17.00;8.40;;;4.30;98.30;;;;;;5114224;28;20035;-66
2021/03/21 05:13:19;;;;;;;14.55;7.22;;;4.40;98.30;;;;;;5114110;28;20059;-65
2021/03/21 05:15:54;;;;;;;14.60;7.43;;;4.40;98.50;;;;;;5113961;28;20041;-65
2021/03/21 05:18:52;;;;;;;17.40;8.20;;;4.30;98.50;;;;;;5113470;28;20081;-68
2021/03/21 05:21:39;;;;;;;13.88;7.75;;;4.30;98.80;;;;;;5113678;28;20028;-65
2021/03/21 05:24:17;;;;;;;13.13;7.25;;;4.30;98.90;;;;;;5113845;28;20032;-65
2021/03/21 05:26:50;;;;;;;17.25;6.82;;;4.30;99.20;;;;;;5113579;28;20055;-65
2021/03/21 05:29:42;;;;;;;14.95;7.65;;;4.30;99.50;;;;;;5113458;28;20023;-65
2021/03/21 05:32:10;;;;;;;15.80;6.40;;;4.20;99.70;;;;;;5112979;28;20019;-64
2021/03/21 05:34:36;;;;;;;17.88;8.90;;;4.20;99.90;;;;;;5113249;28;20023;-64
2021/03/21 05:37:41;;;;;;;15.82;7.45;;;4.20;99.90;;;;;;5113092;28;20024;-65
2021/03/21 05:40:42;;;;;;;16.15;8.25;;;4.20;99.90;;;;;;5067521;28;20497;-65
2021/03/21 05:43:12;;;;;;;14.15;7.22;;;4.10;99.90;;;;;;5112913;28;20055;-65
2021/03/21 05:46:11;;;;;;;16.93;7.87;;;4.10;99.90;;;;;;5112996;28;20019;-65
2021/03/21 05:48:57;;;;;;;14.50;8.18;;;4.10;99.90;;;;;;5112800;28;20261;-66
2021/03/21 05:51:54;;;;;;;19.50;8.85;;;4.10;99.90;;;;;;5112881;28;20055;-67
2021/03/21 05:54:55;;;;;;;13.15;6.90;;;4.10;99.90;;;;;;5112929;28;20016;-65
2021/03/21 05:57:44;;;;;;;16.20;8.00;;;4.10;99.90;;;;;;5101616;28;20055;-67
2021/03/21 06:00:28;;;;;;;15.68;9.13;;;4.00;99.90;;;;;;5101431;28;20077;-65
2021/03/21 06:02:53;;;;;;;16.58;8.02;;;4.00;99.90;;;;;;5103904;28;20061;-66
2021/03/21 06:05:34;;;;;;;16.65;8.57;;;4.00;99.90;;;;;;5101876;28;20024;-67
2021/03/21 06:08:02;;;;;;;13.85;7.82;;;4.00;99.90;;;;;;5102098;28;20044;-65
2021/03/21 06:10:43;;;;;;;20.30;8.57;;;4.00;99.90;;;;;;5109493;28;20118;-66
2021/03/21 06:13:39;;;;;;;16.75;8.40;;;4.10;99.90;;;;;;5112222;28;20024;-65
2021/03/21 06:16:23;;;;;;;14.55;8.20;;;4.00;99.90;;;;;;5112381;28;20022;-65
2021/03/21 06:19:05;;;;;;;14.70;7.90;;;4.00;99.90;;;;;;5112352;28;20050;-65
2021/03/21 06:21:53;;;;;;;17.05;9.05;;;4.00;99.90;;;;;;5112275;28;20028;-66
2021/03/21 06:24:39;;;;;;;17.33;8.45;;;4.00;99.90;;;;;;5112259;28;20042;-67
2021/03/21 06:27:17;;;;;;;17.33;9.30;;;4.00;99.90;;;;;;5112208;28;20047;-65
2021/03/21 06:30:11;;;;;;;16.08;8.02;;;4.00;99.90;;;;;;5111395;28;20218;-66
2021/03/21 06:33:08;;;;;;;15.75;8.80;;;4.00;99.90;;;;;;5111804;28;20076;-65
2021/03/21 06:35:42;;;;;;;15.95;8.30;;;4.10;99.90;;;;;;5111954;28;20055;-67
2021/03/21 06:38:40;;;;;;;16.33;8.50;;;4.10;99.90;;;;;;5112033;28;20581;-66
2021/03/21 06:41:23;;;;;;;15.90;7.65;;;4.20;99.90;;;;;;5064041;28;20133;-65
2021/03/21 06:44:19;;;;;;;16.25;8.52;;;4.20;99.90;;;;;;5111521;28;20019;-65
2021/03/21 06:47:17;;;;;;;16.45;8.38;;;4.30;99.90;;;;;;5111738;28;20070;-65
2021/03/21 06:50:03;;;;;;;18.17;8.90;;;4.30;99.90;;;;;;5111655;28;20024;-65
2021/03/21 06:52:45;;;;;;;17.27;8.32;;;4.30;99.90;;;;;;5111627;28;20442;-66
2021/03/21 06:55:33;;;;;;;14.60;8.25;;;4.40;99.90;;;;;;5102094;28;20027;-66
2021/03/21 06:58:32;;;;;;;15.43;8.43;;;4.40;99.90;;;;;;5087295;28;20028;-65
2021/03/21 07:01:13;;;;;;;17.27;9.15;;;4.40;99.90;;;;;;5100954;28;20531;-67
2021/03/21 07:03:50;;;;;;;14.48;8.35;;;4.50;99.90;;;;;;5100544;28;20028;-66
2021/03/21 07:06:34;;;;;;;15.35;7.25;;;4.60;99.90;;;;;;5100749;28;20051;-65
2021/03/21 07:09:06;;;;;;;14.25;7.38;;;4.70;99.90;;;;;;5101200;28;20535;-65
2021/03/21 07:11:57;;;;;;;16.48;8.38;;;4.80;99.90;;;;;;5100060;28;20016;-65
2021/03/21 07:14:38;;;;;;;18.13;8.63;;;4.80;99.90;;;;;;5100978;28;20207;-65
2021/03/21 07:17:36;;;;;;;16.17;8.57;;;4.80;99.90;;;;;;5099865;28;20030;-65
2021/03/21 07:20:26;;;;;;;14.90;7.47;;;4.80;99.90;;;;;;5058043;28;20405;-67
2021/03/21 07:22:53;;;;;;;16.48;7.82;;;4.80;99.90;;;;;;5081555;28;20112;-65
2021/03/21 07:25:57;;;;;;;14.88;8.32;;;4.90;99.90;;;;;;5099984;28;20015;-65
2021/03/21 07:28:33;;;;;;;19.70;7.90;;;5.00;99.90;;;;;;5097774;28;20172;-66
2021/03/21 07:31:36;;;;;;;15.15;8.32;;;5.10;99.90;;;;;;5111343;28;20027;-66
2021/03/21 07:34:22;;;;;;;16.73;9.00;;;5.10;99.90;;;;;;5087533;28;20558;-66
2021/03/21 07:36:50;;;;;;;11.60;6.75;;;5.20;99.90;;;;;;5070264;28;20028;-68
2021/03/21 07:39:28;;;;;;;14.50;8.73;;;5.20;99.90;;;;;;5092691;28;20047;-67
2021/03/21 07:42:23;;;;;;;15.38;8.57;;;5.20;99.90;;;;;;5120760;27;20396;-68
2021/03/21 07:45:22;;;;;;;15.60;8.27;;;5.20;99.90;;;;;;5135787;27;20015;-68
2021/03/21 07:48:21;;;;;;;20.60;10.70;;;5.20;99.90;;;;;;5135652;27;20029;-68
2021/03/21 07:51:15;;;;;;;18.92;7.88;;;5.30;99.90;;;;;;5135628;27;20027;-69
2021/03/21 07:54:04;;;;;;;21.45;10.35;;;5.30;99.90;;;;;;5135261;27;20054;-68
2021/03/21 07:56:50;;;;;;;14.75;7.50;;;5.30;99.90;;;;;;5135561;27;20026;-68
2021/03/21 07:59:25;;;;;;;15.05;7.93;;;5.30;99.90;;;;;;5135635;27;20023;-67
2021/03/21 08:01:52;;;;;;;12.98;7.22;;;5.50;99.90;;;;;;5114746;27;20023;-67
2021/03/21 08:04:29;;;;;;;13.50;7.35;;;5.70;99.90;;;;;;5114654;28;20031;-66
2021/03/21 08:07:00;;;;;;;13.45;7.60;;;5.80;99.90;;;;;;5114904;28;20020;-67
2021/03/21 08:09:34;;;;;;;17.85;7.18;;;5.80;99.90;;;;;;5114670;28;20104;-68
2021/03/21 08:12:18;;;;;;;11.27;6.22;;;5.80;99.90;;;;;;5114116;28;20030;-68
2021/03/21 08:14:57;;;;;;;13.20;6.50;;;5.90;99.90;;;;;;5114825;28;20015;-67
2021/03/21 08:17:29;;;;;;;9.55;5.07;;;6.20;99.90;;;;;;5114882;28;20343;-68
2021/03/21 08:20:01;;;;;;;10.63;6.15;;;6.50;99.90;;;;;;5114543;28;20470;-68
2021/03/21 08:22:29;;;;;;;10.48;5.03;;;6.70;99.90;;;;;;5114268;28;20023;-68
2021/03/21 08:24:59;;;;;;;10.73;5.10;;;6.80;99.90;;;;;;5114853;28;20035;-68
2021/03/21 08:27:32;;;;;;;10.45;6.03;;;6.80;99.90;;;;;;5114152;28;20036;-68
2021/03/21 08:30:03;;;;;;;11.80;6.22;;;6.70;99.90;;;;;;5114361;28;20055;-67
2021/03/21 08:32:31;;;;;;;9.57;4.53;;;6.70;99.90;;;;;;5113956;28;20026;-68
2021/03/21 08:35:14;;;;;;;9.35;4.43;;;6.80;99.90;;;;;;5114305;28;20112;-68
2021/03/21 08:37:46;;;;;;;9.18;4.88;;;7.00;99.90;;;;;;5114272;28;20020;-68
2021/03/21 08:40:23;;;;;;;10.27;4.80;;;7.10;99.90;;;;;;5095854;28;20024;-67
2021/03/21 08:42:57;;;;;;;10.38;4.78;;;7.10;99.90;;;;;;5113991;28;20024;-68
2021/03/21 08:45:37;;;;;;;9.80;4.63;;;7.20;99.90;;;;;;5114218;28;20371;-68
2021/03/21 08:48:10;;;;;;;12.77;5.15;;;7.30;99.90;;;;;;5100926;28;20039;-67
2021/03/21 08:50:43;;;;;;;9.88;5.20;;;7.30;99.90;;;;;;5102307;28;20437;-68
2021/03/21 08:53:28;;;;;;;9.45;4.97;;;7.20;99.90;;;;;;5083264;28;20023;-68
2021/03/21 08:56:16;;;;;;;10.98;5.32;;;7.20;99.90;;;;;;5104570;28;20098;-68
2021/03/21 08:58:43;;;;;;;9.95;4.60;;;7.20;99.90;;;;;;5119147;27;20019;-68
2021/03/21 09:01:16;;;;;;;9.25;4.68;;;7.20;99.90;;;;;;5102580;28;20024;-68
2021/03/21 09:03:43;;;;;;;9.15;4.97;;;7.20;99.90;;;;;;5098950;28;20024;-68
2021/03/21 09:06:26;;;;;;;9.40;4.68;;;7.30;99.90;;;;;;5113773;28;20028;-68
2021/03/21 09:08:51;;;;;;;7.57;3.90;;;7.30;99.90;;;;;;5104954;28;20034;-66
2021/03/21 09:11:33;;;;;;;8.38;4.63;;;7.30;99.90;;;;;;5104053;28;20023;-68
2021/03/21 09:14:04;;;;;;;8.60;4.57;;;7.40;99.90;;;;;;5102045;28;20073;-68
2021/03/21 09:16:30;;;;;;;8.82;4.57;;;7.40;99.90;;;;;;5093255;28;20012;-68
2021/03/21 09:19:22;;;;;;;9.38;4.28;;;7.50;99.90;;;;;;5093395;28;20026;-68
2021/03/21 09:21:47;;;;;;;7.47;4.05;;;7.50;99.90;;;;;;5096192;28;20027;-65
2021/03/21 09:24:29;;;;;;;8.57;4.75;;;7.70;99.90;;;;;;5110972;28;20105;-67
2021/03/21 09:27:34;;;;;;;8.70;4.72;;;7.80;99.90;;;;;;5095074;28;20389;-68
2021/03/21 09:30:16;;;;;;;9.52;4.28;;;8.10;99.90;;;;;;5094459;28;20490;-68
2021/03/21 09:32:42;;;;;;;9.77;4.72;;;8.40;99.60;;;;;;5112804;28;20032;-67
2021/03/21 09:35:31;;;;;;;8.13;4.82;;;8.50;98.30;;;;;;5112974;28;20039;-67
2021/03/21 09:38:19;;;;;;;7.55;3.95;;;8.70;99.60;;;;;;5112960;28;20036;-67
2021/03/21 09:40:50;;;;;;;9.13;4.25;;;8.80;98.70;;;;;;5112388;28;20058;-68
2021/03/21 09:43:20;;;;;;;8.73;4.25;;;8.90;98.40;;;;;;5112827;28;20062;-70
2021/03/21 09:45:53;;;;;;;8.88;3.47;;;9.00;98.80;;;;;;5112944;28;20028;-69
2021/03/21 09:48:33;;;;;;;6.28;2.83;;;8.70;97.90;;;;;;5093835;28;20088;-69
2021/03/21 09:51:21;;;;;;;5.35;2.33;;;8.70;96.90;;;;;;5112951;28;20028;-69
2021/03/21 09:54:06;;;;;;;4.10;1.83;;;8.70;97.20;;;;;;5112112;28;20042;-69
2021/03/21 09:56:54;;;;;;;4.93;1.90;;;8.90;96.60;;;;;;5113124;28;20496;-69
2021/03/21 09:59:56;;;;;;;6.85;2.22;;;9.20;96.20;;;;;;5094421;28;20024;-68
2021/03/21 10:02:30;;;;;;;5.05;2.13;;;9.30;96.90;;;;;;5094102;28;20032;-70
2021/03/21 10:05:17;;;;;;;5.10;2.25;;;9.40;95.90;;;;;;5111958;28;20404;-69
2021/03/21 10:07:51;;;;;;;5.53;2.60;;;9.50;95.80;;;;;;5123216;27;20031;-70
2021/03/21 10:10:29;;;;;;;6.28;2.28;;;9.70;95.70;;;;;;5093439;28;20032;-70
2021/03/21 10:12:55;;;;;;;6.18;2.13;;;9.90;94.90;;;;;;5112168;28;20026;-70
2021/03/21 10:15:24;;;;;;;4.63;1.88;;;10.00;94.80;;;;;;5112233;28;20028;-70
2021/03/21 10:17:53;;;;;;;5.72;2.00;;;10.00;95.00;;;;;;5112389;28;20501;-70
2021/03/21 10:20:22;;;;;;;5.95;2.90;;;9.90;95.80;;;;;;5112321;28;20076;-70
2021/03/21 10:22:47;;;;;;;5.60;2.35;;;9.90;95.40;;;;;;5111997;28;20027;-74
2021/03/21 10:25:13;;;;;;;4.95;2.30;;;9.60;95.90;;;;;;5112273;28;20080;-69
2021/03/21 10:27:45;;;;;;;5.82;2.10;;;9.10;96.50;;;;;;5112210;28;20020;-70
2021/03/21 10:30:16;;;;;;;5.03;2.08;;;8.80;98.80;;;;;;5112108;28;20028;-70
2021/03/21 10:32:46;;;;;;;4.20;2.00;;;8.70;99.30;;;;;;5093639;28;20062;-70
2021/03/21 10:35:23;;;;;;;4.03;1.75;;;8.60;99.00;;;;;;5112149;28;20012;-70
2021/03/21 10:37:52;;;;;;;4.75;1.98;;;8.50;99.70;;;;;;5093922;28;20055;-68
2021/03/21 10:40:24;;;;;;;6.78;2.88;;;8.20;99.40;;;;;;5111923;28;20019;-69
2021/03/21 10:43:24;;;;;;;4.43;2.05;;;8.40;99.90;;;;;;5111138;28;20028;-66
2021/03/21 10:45:52;;;;;;;5.07;1.45;;;8.90;99.20;;;;;;5066513;28;20056;-67
2021/03/21 10:48:17;;;;;;;2.65;0.98;;;9.20;95.90;;;;;;5111862;28;20053;-67
2021/03/21 10:50:45;;;;;;;3.83;1.40;;;9.20;95.10;;;;;;5111692;28;20024;-69
2021/03/21 10:53:29;;;;;;;3.88;1.20;;;9.20;94.90;;;;;;5111507;28;20030;-68
2021/03/21 10:56:19;;;;;;;2.53;1.00;;;9.20;95.10;;;;;;5111697;28;20450;-69
2021/03/21 10:59:07;;;;;;;6.35;1.40;;;9.50;93.90;;;;;;5111622;28;20030;-68
2021/03/21 11:01:35;;;;;;;5.22;1.60;;;9.70;93.50;;;;;;5111724;28;20024;-68
2021/03/21 11:04:24;;;;;;;3.42;1.08;;;9.80;91.10;;;;;;5111333;28;20031;-68
2021/03/21 11:06:59;;;;;;;4.63;1.67;;;9.70;91.50;;;;;;5111614;28;20038;-68
2021/03/21 11:09:32;;;;;;;3.42;1.20;;;9.70;92.00;;;;;;5111312;28;20050;-67
2021/03/21 11:12:00;;;;;;;4.07;1.13;;;9.60;91.30;;;;;;5111117;28;20028;-68
2021/03/21 11:14:26;;;;;;;6.63;1.50;;;9.50;92.30;;;;;;5111334;28;20062;-67
2021/03/21 11:16:56;;;;;;;6.25;1.77;;;9.30;92.60;;;;;;5111093;28;20047;-69
2021/03/21 11:19:26;;;;;;;5.88;1.88;;;9.30;92.50;;;;;;5111261;28;20028;-68
2021/03/21 11:21:51;;;;;;;3.70;1.55;;;9.40;93.40;;;;;;5111033;28;20042;-68
2021/03/21 11:24:20;;;;;;;5.85;1.50;;;9.70;92.80;;;;;;5111320;28;20032;-67
2021/03/21 11:26:46;;;;;;;6.03;1.10;;;9.90;93.20;;;;;;5111297;28;20055;-68
2021/03/21 11:29:38;;;;;;;3.75;1.27;;;9.80;92.30;;;;;;5111094;28;20024;-68
2021/03/21 11:32:26;;;;;;;4.85;1.60;;;9.60;93.10;;;;;;5110979;28;20024;-67
2021/03/21 11:35:05;;;;;;;5.30;1.75;;;9.50;92.90;;;;;;5111194;28;20024;-68
2021/03/21 11:37:34;;;;;;;13.02;3.50;;;9.50;93.50;;;;;;5111220;28;20028;-69
2021/03/21 11:40:10;;;;;;;6.63;2.20;;;9.60;94.20;;;;;;5111109;28;20117;-68
2021/03/21 11:42:39;;;;;;;6.60;1.50;;;9.50;93.70;;;;;;5110897;28;20034;-67
2021/03/21 11:45:20;;;;;;;9.40;2.22;;;9.20;92.80;;;;;;5110887;28;20034;-68
2021/03/21 11:48:10;;;;;;;12.48;3.10;;;8.90;92.90;;;;;;5111124;28;20389;-68
2021/03/21 11:50:38;;;;;;;9.82;2.13;;;8.70;92.70;;;;;;5096202;28;20035;-69
2021/03/21 11:53:07;;;;;;;14.02;2.70;;;8.90;92.80;;;;;;5110634;28;20043;-67
2021/03/21 11:55:40;;;;;;;12.43;2.63;;;9.10;91.40;;;;;;5111067;28;20084;-67
2021/03/21 11:58:33;;;;;;;15.48;2.60;;;9.30;91.70;;;;;;5110915;28;20033;-69
2021/03/21 12:01:11;;;;;;;11.25;2.35;;;9.90;90.70;;;;;;5110979;28;20081;-69
2021/03/21 12:03:56;;;;;;;13.18;3.00;;;10.50;83.20;;;;;;5110741;28;20028;-67
2021/03/21 12:06:36;;;;;;;13.23;2.42;;;11.00;83.10;;;;;;5111009;28;20062;-68
2021/03/21 12:09:20;;;;;;;;;;;11.30;75.60;;;;;;5111294;28;20394;-69
2021/03/21 12:11:47;;;;;;;16.00;4.20;;;11.60;73.30;;;;;;5110575;28;19910;-67
2021/03/21 12:14:43;;;;;;;18.27;3.88;;;12.30;70.00;;;;;;5110954;28;20439;-69
2021/03/21 12:17:24;;;;;;;14.13;3.25;;;12.60;66.50;;;;;;5111018;28;20103;-69
2021/03/21 12:19:55;;;;;;;12.95;3.25;;;12.40;66.00;;;;;;5092665;28;20024;-68
2021/03/21 12:22:29;;;;;;;17.58;3.45;;;12.00;67.80;;;;;;5110770;28;20020;-69
2021/03/21 12:25:00;;;;;;;13.05;3.58;;;12.00;67.80;;;;;;5110891;28;20035;-68
2021/03/21 12:27:28;;;;;;;14.27;2.83;;;11.70;67.20;;;;;;5110977;28;20482;-67
2021/03/21 12:30:05;;;;;;;18.75;3.90;;;12.10;67.50;;;;;;5114286;28;20435;-68
2021/03/21 12:32:49;;;;;;;11.82;3.10;;;11.30;68.30;;;;;;5114297;28;20495;-68
2021/03/21 12:35:27;;;;;;;21.08;3.47;;;11.00;71.30;;;;;;5096210;28;20106;-68
2021/03/21 12:37:58;;;;;;;18.55;3.38;;;12.10;68.70;;;;;;5096248;28;20397;-68
2021/03/21 12:40:35;;;;;;;25.02;4.85;;;13.00;63.90;;;;;;5114360;28;20362;-67
2021/03/21 12:43:23;;;;;;;14.55;3.92;;;12.90;64.50;;;;;;5113970;28;20023;-68
2021/03/21 12:46:10;;;;;;;18.50;3.63;;;12.20;64.60;;;;;;5095839;28;20032;-68
2021/03/21 12:48:51;;;;;;;19.83;4.30;;;11.60;68.30;;;;;;5114135;28;20509;-68
2021/03/21 12:51:29;;;;;;;14.85;2.60;;;11.00;71.40;;;;;;5114127;28;20474;-68
2021/03/21 12:53:55;;;;;;;16.23;4.20;;;10.70;73.90;;;;;;5113682;28;20114;-68
2021/03/21 12:56:21;;;;;;;20.38;4.10;;;10.60;81.00;;;;;;5113944;28;20026;-68
2021/03/21 12:58:47;;;;;;;24.38;3.65;;;10.40;80.60;;;;;;5113892;28;20024;-68
2021/03/21 13:01:13;;;;;;;22.25;4.10;;;10.00;82.60;;;;;;5113954;28;20482;-68
2021/03/21 13:03:38;;;;;;;20.10;3.70;;;9.80;83.40;;;;;;5113743;28;20054;-69
2021/03/21 13:06:05;;;;;;;17.58;3.15;;;10.00;82.50;;;;;;5113788;28;20038;-69
2021/03/21 13:08:31;;;;;;;22.23;4.10;;;10.10;80.80;;;;;;5113685;28;20027;-68
2021/03/21 13:10:59;;;;;;;25.40;3.47;;;10.10;81.20;;;;;;5113696;28;20028;-68
2021/03/21 13:13:25;;;;;;;18.77;3.90;;;10.50;79.70;;;;;;5113446;28;20027;-68
2021/03/21 13:15:52;;;;;;;18.58;4.45;;;11.70;75.80;;;;;;5113640;28;20050;-68
2021/03/21 13:18:19;;;;;;;17.85;3.63;;;12.10;70.90;;;;;;5113616;28;20031;-69
2021/03/21 13:20:50;;;;;;;19.13;3.70;;;12.10;71.30;;;;;;5113475;28;20514;-67
2021/03/21 13:23:16;;;;;;;17.45;3.72;;;12.30;70.20;;;;;;5113120;28;20034;-67
2021/03/21 13:25:41;;;;;;;15.30;3.03;;;11.90;72.60;;;;;;5113382;28;20027;-69
2021/03/21 13:28:08;;;;;;;17.40;3.80;;;11.80;74.20;;;;;;5113420;28;20031;-68
2021/03/21 13:30:37;;;;;;;25.00;4.60;;;11.70;74.30;;;;;;5094967;28;20028;-68
2021/03/21 13:33:04;;;;;;;23.50;5.10;;;11.10;75.60;;;;;;5112935;28;20106;-68
2021/03/21 13:35:31;;;;;;;27.20;8.68;;;10.90;77.40;;;;;;5113214;28;20542;-68
2021/03/21 13:37:58;;;;;;;24.95;4.72;;;11.00;80.40;;;;;;5113208;28;20024;-67